Grider Field
KPBF : rendu visible

Aérodrome :











RETROUVEZ-NOUS SUR...

 
LOGIN :

S'inscrire | Disclaimer

   EN    FR    IT 

 









Légende :    VFR   VFR Marginal   IFR   IFR Intensif   IFR Très Intensif
Visi : 
Plafond : 
>= 8 km
>= 3000ft
5 à 8 km
1000 à 3000 ft
1500m à 5 km
500 à 1000 ft
800 à 1500m
200 à 500 ft
< 800m
< 200 ft
Symboles :   Orages  Brouillard  Fortes neiges  Fortes précipitations  Vent > 20 kt






- Altitude de l'aérodrome : 206 ft


KPBF - Grider Field

DERNIER METAR :
  • 211653Z AUTO 19009KT 3SM -RA BR OVC006 14/14 A3010 RMK AO2 CIG 004V008 SLP192 P0011 T01440139

METARs EXPIRÉS :
  • 211638Z AUTO 19008KT 1 3/4SM +RA BR BKN006 OVC010 13/13 A3011 RMK AO2 P0009 T01330133
  • 211606Z AUTO 17010KT 4SM -RA BR BKN009 BKN021 OVC037 14/13 A3011 RMK AO2 P0002 T01390133
  • 211553Z AUTO 18010KT 3SM RA BR SCT010 BKN022 OVC037 14/13 A3012 RMK AO2 SLP197 P0018 T01390133
  • 211541Z AUTO 18011KT 2 1/2SM RA BR SCT011 OVC022 14/12 A3012 RMK AO2 P0014 T01390122
  • 211520Z AUTO 17009KT 5SM -RA BR FEW011 OVC026 14/12 A3012 RMK AO2 P0006 T01390122
  • 211449Z AUTO 18006KT 2 1/2SM -RA BR FEW007 OVC029 13/12 A3012 RMK AO2 SLP199 P0002 60039 T01330122 51005
  • 211442Z AUTO 18007KT 6SM -RA BR SCT007 BKN031 OVC050 13/12 A3012 RMK AO2 P0001 T01330117
  • 211429Z AUTO 18008KT 9SM -RA BKN007 BKN033 OVC055 13/12 A3012 RMK AO2 P0001 T01280117
  • 211412Z AUTO 16010KT 7SM -RA SCT006 BKN047 OVC055 13/11 A3011 RMK AO2 P0001 T01280111

TAF KPBF
Valide du 21 à 15h jusqu'au 22 à 12h UTC


211436Z 2115/2212 18009KT 6SM -RA BR BKN007 OVC030
TEMPO 2115/2116 3SM -RA BR
FM220000 16008KT P6SM VCSH OVC025
FM220800 19009KT P6SM OVC015



MET'MAP, la Météo Aéronautique d'un coup d'oeil ! - Copyright ORBIFLY Décembre 2007 - Disclaimer

ORBIFLY MET'MAP TEAM :

Programmation & Développement : Alexandra Zaïnal
Conception & Développement : Baudouin d'Aumeries
Co-Programmation & Développement : Marc-Olivier Méhu
Soutien technique & logistique : Manuel Goepfert

Contact : metmap@orbifly.com




SOURCES & CREDITS :

   NOAA       Earth
Advisory